Augusta Springs, VA

9:37 PM EDT on September 21, 2014 (GMT -0400)
Mountain Meadow Farm | Change Station
CLOSE
Current Station
Personal Weather Station
Location: Goshen, VA
Elevation: 1532 ft
Nearby Weather Stations

Elev 1532 ft 38.05 °N, 79.48 °W | Updated 14 minutes ago

Mostly Cloudy
Mostly Cloudy
69.4 °F
Feels Like 69.4 °F
N
0.0
Wind Variable Wind from West
Gusts 2.0 mph

Today
High -- | Low -- °F
--% Chance of Precip.
Yesterday
High -- | Low -- °F
Precip. -- in
7:04 AM 7:15 PM
Waning Crescent, 4% visible
Pressure 29.81 in
Visibility 10.0 miles
Clouds Scattered Clouds 5000 ft
Overcast 7000 ft
Dew Point 62 °F
Humidity 77%
Rainfall 0.00 in
Snow Depth Not available.
UV 0 out of 12
Pollen 5.80 out of 12
Air Quality Not available.
Flu Activity Not available.
METAR KSHD 220115Z AUTO 28005KT 10SM SCT050 OVC070 21/16 A2981 RMK AO2 P0001 T02100155

More Conditions Fewer Conditions

Pressure 29.81 in
Visibility 10.0 miles
Clouds Scattered Clouds 5000 ft
Overcast 7000 ft
Dew Point 62 °F
Humidity 77%
Rainfall 0.00 in
Snow Depth Not available.
UV 0 out of 12
Pollen 5.80 out of 12
Air Quality Not available.
Flu Activity Not available.
METAR KSHD 220115Z AUTO 28005KT 10SM SCT050 OVC070 21/16 A2981 RMK AO2 P0001 T02100155

More Conditions Fewer Conditions

10-Day Weather Forecast

Almanac

Astronomy

Sep. 21, 2014 Rise Set
Actual Time 7:04 AM EDT 7:15 PM EDT
Civil Twilight 6:37 AM EDT 7:42 PM EDT
Nautical Twilight 6:07 AM EDT 8:12 PM EDT
Astronomical Twilight 5:35 AM EDT 8:44 PM EDT
Moon 4:38 AM EDT (9/21) 5:49 PM EDT (9/21)
Length of Visible Light 13h 04m
Length of Day
12h 11m
Tomorrow will be 2m 26s shorter.
Waning Crescent, 4% of the Moon is Illuminated
Today
Waning Crescent
Sep 24
New
Oct 1
First Quarter
Oct 8
Full
Oct 15
Last Quarter

Today's Extremes

State Highs State Lows

Community

WunderPhotos

Upload Photos

1,755,346 photos uploaded!

WunderBlogs® & News

Nearby

Snow Depth

Station Depth Elevation
No new snow has been reported.

Earthquake Activity

City Distance Mag. Time & Date
No recent earthquake activity has been reported nearby.
Minimum magnitude displayed is 2.5.

Coastal Water Temperatures

Place Temperature
No Stations Reporting

Nearby Weather Stations